createdAt,value
2022-07-26T00:00:26.813Z,100.00
2022-07-26T00:02:55.125Z,100.00
2022-07-26T00:05:23.249Z,100.00
2022-07-26T00:08:11.106Z,100.00
2022-07-26T00:10:42.312Z,100.00
2022-07-26T00:13:11.177Z,100.00
2022-07-26T00:15:40.558Z,100.00
2022-07-26T00:18:23.158Z,100.00
2022-07-26T00:20:51.603Z,100.00
2022-07-26T00:23:21.184Z,100.00
2022-07-26T00:25:49.249Z,100.00
2022-07-26T00:28:17.521Z,100.00
2022-07-26T00:30:46.661Z,100.00
2022-07-26T00:33:15.360Z,100.00
2022-07-26T00:35:43.505Z,100.00
2022-07-26T00:38:11.613Z,100.00
2022-07-26T00:40:41.103Z,100.00
2022-07-26T00:43:09.806Z,100.00
2022-07-26T00:45:50.475Z,100.00
2022-07-26T00:48:19.156Z,100.00
2022-07-26T00:50:47.905Z,100.00
2022-07-26T00:53:16.117Z,100.00
2022-07-26T00:55:45.723Z,100.00
2022-07-26T00:58:13.864Z,100.00
2022-07-26T01:00:42.008Z,100.00
2022-07-26T01:03:11.494Z,100.00
2022-07-26T01:05:39.777Z,100.00
2022-07-26T01:08:07.898Z,100.00
2022-07-26T01:10:39.496Z,100.00
2022-07-26T01:13:10.693Z,100.00
2022-07-26T01:15:39.290Z,100.00
2022-07-26T01:18:07.462Z,100.00
2022-07-26T01:20:36.036Z,100.00
2022-07-26T01:23:05.801Z,100.00
2022-07-26T01:25:43.158Z,100.00
2022-07-26T01:28:19.819Z,100.00
2022-07-26T01:30:48.808Z,100.00
2022-07-26T01:33:19.130Z,100.00
2022-07-26T01:35:47.310Z,100.00
2022-07-26T01:38:16.973Z,100.00
2022-07-26T01:40:45.188Z,100.00
2022-07-26T01:43:13.509Z,100.00
2022-07-26T01:45:41.801Z,100.00
2022-07-26T01:48:10.897Z,100.00
2022-07-26T01:50:39.228Z,100.00
2022-07-26T01:53:07.455Z,100.00
2022-07-26T01:55:37.705Z,100.00
2022-07-26T01:58:06.613Z,100.00
2022-07-26T02:00:38.067Z,100.00
2022-07-26T02:03:06.643Z,100.00
2022-07-26T02:05:34.901Z,100.00
2022-07-26T02:08:03.162Z,100.00
2022-07-26T02:10:56.246Z,100.00
2022-07-26T02:13:26.318Z,100.00
2022-07-26T02:15:54.667Z,100.00
2022-07-26T02:18:22.884Z,100.00
2022-07-26T02:20:51.148Z,100.00
2022-07-26T02:23:22.294Z,100.00
2022-07-26T02:25:54.886Z,100.00
2022-07-26T02:28:25.056Z,100.00
2022-07-26T02:30:53.466Z,100.00
2022-07-26T02:33:22.701Z,100.00
2022-07-26T02:35:50.764Z,100.00
2022-07-26T02:38:41.115Z,100.00
2022-07-26T02:41:10.624Z,100.00
2022-07-26T02:43:38.885Z,100.00
2022-07-26T02:46:07.419Z,100.00
2022-07-26T02:48:35.683Z,100.00
2022-07-26T02:51:04.141Z,100.00
2022-07-26T02:53:39.498Z,100.00
2022-07-26T02:56:07.919Z,100.00
2022-07-26T02:58:38.246Z,100.00
2022-07-26T03:01:06.851Z,100.00
2022-07-26T03:03:38.278Z,100.00
2022-07-26T03:06:06.655Z,100.00
2022-07-26T03:08:39.348Z,100.00
2022-07-26T03:11:12.015Z,100.00
2022-07-26T03:13:42.579Z,100.00
2022-07-26T03:16:10.754Z,100.00
2022-07-26T03:18:39.145Z,100.00
2022-07-26T03:21:10.449Z,100.00
2022-07-26T03:23:38.381Z,100.00
2022-07-26T03:26:06.603Z,100.00
2022-07-26T03:28:37.743Z,100.00
2022-07-26T03:31:07.289Z,100.00
2022-07-26T03:33:38.810Z,100.00
2022-07-26T03:36:11.517Z,100.00
2022-07-26T03:38:43.647Z,100.00
2022-07-26T03:41:13.813Z,100.00
2022-07-26T03:43:42.288Z,100.00
2022-07-26T03:46:13.582Z,100.00
2022-07-26T03:48:41.667Z,100.00
2022-07-26T03:51:11.001Z,100.00
2022-07-26T03:53:40.019Z,100.00
2022-07-26T03:56:25.606Z,100.00
2022-07-26T03:58:54.221Z,100.00
2022-07-26T04:01:32.098Z,100.00
2022-07-26T04:04:00.788Z,100.00
2022-07-26T04:06:31.976Z,100.00
2022-07-26T04:09:00.423Z,100.00
2022-07-26T04:11:56.133Z,100.00
2022-07-26T04:14:24.151Z,100.00
2022-07-26T04:17:10.182Z,100.00
2022-07-26T04:19:40.459Z,100.00
2022-07-26T04:22:08.536Z,100.00
2022-07-26T04:24:36.717Z,100.00
2022-07-26T04:27:05.112Z,100.00
2022-07-26T04:29:33.220Z,100.00
2022-07-26T04:32:01.505Z,100.00
2022-07-26T04:34:31.064Z,100.00
2022-07-26T04:36:59.164Z,100.00
2022-07-26T04:39:35.538Z,100.00
2022-07-26T04:42:03.668Z,100.00
2022-07-26T04:44:31.909Z,100.00
2022-07-26T04:46:59.977Z,100.00
2022-07-26T04:49:31.636Z,100.00
2022-07-26T04:52:01.218Z,100.00
2022-07-26T04:54:36.584Z,100.00
2022-07-26T04:57:12.579Z,100.00
2022-07-26T04:59:40.746Z,100.00
2022-07-26T05:02:08.976Z,100.00
2022-07-26T05:04:37.166Z,100.00
2022-07-26T05:07:06.681Z,100.00
2022-07-26T05:09:37.846Z,100.00
2022-07-26T05:12:08.029Z,100.00
2022-07-26T05:14:39.094Z,100.00
2022-07-26T05:17:09.040Z,100.00
2022-07-26T05:19:39.123Z,100.00
2022-07-26T05:22:09.267Z,100.00
2022-07-26T05:24:37.366Z,100.00
2022-07-26T05:27:05.833Z,100.00
2022-07-26T05:29:40.451Z,100.00
2022-07-26T05:32:09.356Z,100.00
2022-07-26T05:34:37.412Z,100.00
2022-07-26T05:37:05.593Z,100.00
2022-07-26T05:39:35.465Z,100.00
2022-07-26T05:42:04.052Z,100.00
2022-07-26T05:44:33.037Z,100.00
2022-07-26T05:47:01.265Z,100.00
2022-07-26T05:49:39.711Z,100.00
2022-07-26T05:52:09.362Z,100.00
2022-07-26T05:54:39.103Z,100.00
2022-07-26T05:57:07.330Z,100.00
2022-07-26T05:59:35.374Z,100.00
2022-07-26T06:02:03.560Z,100.00
2022-07-26T06:04:35.052Z,100.00
2022-07-26T06:07:03.999Z,100.00
2022-07-26T06:09:33.029Z,100.00
2022-07-26T06:12:04.565Z,100.00
2022-07-26T06:14:32.863Z,100.00
2022-07-26T06:17:01.281Z,100.00
2022-07-26T06:19:33.593Z,100.00
2022-07-26T06:22:01.886Z,100.00
2022-07-26T06:24:39.530Z,100.00
2022-07-26T06:27:09.295Z,100.00
2022-07-26T06:29:37.474Z,100.00
2022-07-26T06:32:05.991Z,100.00
2022-07-26T06:34:34.193Z,100.00
2022-07-26T06:37:02.298Z,100.00
2022-07-26T06:39:41.289Z,100.00
2022-07-26T06:42:11.117Z,100.00
2022-07-26T06:44:39.407Z,100.00
2022-07-26T06:47:07.693Z,100.00
2022-07-26T06:49:36.284Z,100.00
2022-07-26T06:52:04.862Z,100.00
2022-07-26T06:54:34.884Z,100.00
2022-07-26T06:57:03.466Z,100.00
2022-07-26T06:59:36.564Z,100.00
2022-07-26T07:02:04.986Z,100.00
2022-07-26T07:04:34.549Z,100.00
2022-07-26T07:07:06.121Z,100.00
2022-07-26T07:09:38.794Z,100.00
2022-07-26T07:12:09.715Z,100.00
2022-07-26T07:14:40.786Z,100.00
2022-07-26T07:17:13.034Z,100.00
2022-07-26T07:19:43.965Z,100.00
2022-07-26T07:22:12.951Z,100.00
2022-07-26T07:24:42.072Z,100.00
2022-07-26T07:27:10.897Z,98.70
2022-07-26T07:29:42.016Z,99.45
2022-07-26T07:32:15.792Z,97.78
2022-07-26T07:34:47.649Z,98.41
2022-07-26T07:37:16.197Z,97.45
2022-07-26T07:39:44.440Z,97.22
2022-07-26T07:42:18.411Z,97.62
2022-07-26T07:44:50.316Z,96.11
2022-07-26T07:47:19.447Z,95.35
2022-07-26T07:49:47.637Z,94.83
2022-07-26T07:52:16.077Z,93.47
2022-07-26T07:54:46.393Z,91.69
2022-07-26T07:57:14.396Z,92.98
2022-07-26T07:59:42.869Z,91.33
2022-07-26T08:02:15.204Z,93.25
2022-07-26T08:04:43.377Z,92.89
2022-07-26T08:07:11.493Z,91.42
2022-07-26T08:09:42.824Z,88.77
2022-07-26T08:12:12.423Z,87.57
2022-07-26T08:14:41.441Z,88.88
2022-07-26T08:17:10.040Z,89.02
2022-07-26T08:19:42.041Z,88.56
2022-07-26T08:22:11.731Z,86.79
2022-07-26T08:24:40.756Z,87.66
2022-07-26T08:27:08.927Z,88.40
2022-07-26T08:29:37.225Z,86.33
2022-07-26T08:32:05.953Z,86.17
2022-07-26T08:34:34.996Z,85.19
2022-07-26T08:37:17.121Z,83.06
2022-07-26T08:39:45.887Z,82.97
2022-07-26T08:42:16.494Z,82.71
2022-07-26T08:44:46.000Z,83.64
2022-07-26T08:47:14.781Z,83.44
2022-07-26T08:49:43.966Z,85.54
2022-07-26T08:52:17.385Z,86.04
2022-07-26T08:54:47.483Z,84.86
2022-07-26T08:57:15.600Z,87.33
2022-07-26T08:59:44.346Z,84.78
2022-07-26T09:02:14.770Z,85.75
2022-07-26T09:04:47.414Z,85.76
2022-07-26T09:07:24.902Z,85.61
2022-07-26T09:09:59.926Z,84.44
2022-07-26T09:12:31.192Z,82.83
2022-07-26T09:15:00.425Z,80.27
2022-07-26T09:17:40.802Z,80.55
2022-07-26T09:20:11.834Z,79.40
2022-07-26T09:23:01.978Z,79.37
2022-07-26T09:25:32.294Z,78.83
2022-07-26T09:28:00.877Z,77.43
2022-07-26T09:30:30.489Z,74.64
2022-07-26T09:33:02.455Z,74.97
2022-07-26T09:35:51.095Z,75.85
2022-07-26T09:38:24.358Z,74.37
2022-07-26T09:40:55.561Z,72.75
2022-07-26T09:43:24.546Z,73.51
2022-07-26T09:46:05.551Z,77.07
2022-07-26T09:48:59.536Z,75.83
2022-07-26T09:51:43.210Z,79.63
2022-07-26T09:54:18.437Z,80.62
2022-07-26T09:56:50.863Z,82.27
2022-07-26T09:59:20.220Z,83.35
2022-07-26T10:01:49.271Z,82.76
2022-07-26T10:04:17.526Z,82.29
2022-07-26T10:06:45.711Z,82.44
2022-07-26T10:09:19.889Z,81.14
2022-07-26T10:11:54.331Z,78.97
2022-07-26T10:14:42.509Z,77.41
2022-07-26T10:17:46.859Z,76.58
2022-07-26T10:20:45.727Z,74.96
2022-07-26T10:23:52.637Z,76.97
2022-07-26T10:26:45.559Z,77.20
2022-07-26T10:29:28.790Z,74.80
2022-07-26T10:32:21.578Z,75.23
2022-07-26T10:34:49.717Z,74.14
2022-07-26T10:37:29.833Z,72.41
2022-07-26T10:40:27.954Z,72.30
2022-07-26T10:43:37.975Z,72.64
2022-07-26T10:46:28.378Z,73.08
2022-07-26T10:48:57.995Z,71.99
2022-07-26T10:51:27.972Z,70.49
2022-07-26T10:54:03.779Z,66.92
2022-07-26T10:56:33.765Z,66.39
2022-07-26T10:59:04.427Z,69.58
2022-07-26T11:01:36.457Z,67.37
2022-07-26T11:04:05.527Z,68.30
2022-07-26T11:06:36.062Z,71.46
2022-07-26T11:09:12.706Z,70.53
2022-07-26T11:11:47.095Z,70.70
2022-07-26T11:14:18.811Z,70.52
2022-07-26T11:16:50.921Z,72.94
2022-07-26T11:19:21.417Z,72.96
2022-07-26T11:21:55.475Z,70.07
2022-07-26T11:24:23.785Z,67.12
2022-07-26T11:26:52.557Z,67.37
2022-07-26T11:29:35.644Z,68.44
2022-07-26T11:32:16.408Z,67.95
2022-07-26T11:34:46.201Z,68.67
2022-07-26T11:37:14.850Z,69.97
2022-07-26T11:39:42.930Z,71.52
2022-07-26T11:44:57.436Z,69.44
2022-07-26T11:47:26.728Z,69.71
2022-07-26T11:52:44.285Z,64.88
2022-07-26T11:55:12.678Z,64.51
2022-07-26T11:57:40.901Z,64.62
2022-07-26T12:00:12.509Z,63.22
2022-07-26T12:02:40.841Z,61.35
2022-07-26T12:05:17.982Z,62.72
2022-07-26T12:08:00.883Z,61.11
2022-07-26T12:10:30.609Z,60.62
2022-07-26T12:13:09.711Z,59.09
2022-07-26T12:15:56.938Z,57.47
2022-07-26T12:18:27.388Z,54.15
2022-07-26T12:21:05.460Z,54.00
2022-07-26T12:23:45.758Z,53.48
2022-07-26T12:26:21.963Z,55.95
2022-07-26T12:28:52.517Z,54.03
2022-07-26T12:31:27.805Z,53.29
2022-07-26T12:33:56.422Z,51.49
2022-07-26T12:36:29.552Z,50.88
2022-07-26T12:38:59.273Z,50.60
2022-07-26T12:41:35.152Z,50.26
2022-07-26T12:44:05.438Z,48.60
2022-07-26T12:46:36.058Z,48.56
2022-07-26T12:49:05.429Z,49.37
2022-07-26T12:51:33.675Z,50.96
2022-07-26T12:54:01.695Z,51.81
2022-07-26T12:56:29.710Z,51.14
2022-07-26T12:59:02.022Z,50.70
2022-07-26T13:01:40.430Z,50.92
2022-07-26T13:04:09.128Z,50.49
2022-07-26T13:06:37.766Z,50.13
2022-07-26T13:09:07.765Z,51.53
2022-07-26T13:11:35.713Z,51.10
2022-07-26T13:14:03.667Z,51.87
2022-07-26T13:16:45.344Z,52.06
2022-07-26T13:19:13.464Z,52.08
2022-07-26T13:21:41.893Z,51.64
2022-07-26T13:24:11.417Z,49.38
2022-07-26T13:26:41.139Z,50.43
2022-07-26T13:29:09.823Z,48.22
2022-07-26T13:31:40.007Z,49.79
2022-07-26T13:34:09.641Z,48.80
2022-07-26T13:36:38.030Z,49.89
2022-07-26T13:39:06.953Z,48.37
2022-07-26T13:41:35.840Z,48.45
2022-07-26T13:44:06.547Z,49.77
2022-07-26T13:46:34.778Z,48.92
2022-07-26T13:49:04.373Z,47.74
2022-07-26T13:51:53.915Z,45.83
2022-07-26T13:54:26.516Z,48.89
2022-07-26T13:56:55.415Z,47.47
2022-07-26T13:59:23.621Z,49.55
2022-07-26T14:01:52.203Z,51.92
2022-07-26T14:04:34.666Z,51.96
2022-07-26T14:07:04.560Z,54.44
2022-07-26T14:09:34.163Z,53.56
2022-07-26T14:12:02.798Z,50.28
2022-07-26T14:14:31.229Z,50.14
2022-07-26T14:16:59.533Z,51.15
2022-07-26T14:19:27.611Z,50.04
2022-07-26T14:21:58.918Z,49.66
2022-07-26T14:24:30.504Z,49.84
2022-07-26T14:26:59.815Z,49.12
2022-07-26T14:29:30.001Z,50.56
2022-07-26T14:31:58.227Z,50.44
2022-07-26T14:34:27.353Z,48.75
2022-07-26T14:36:55.452Z,49.44
2022-07-26T14:39:24.132Z,49.30
2022-07-26T14:41:53.534Z,49.46
2022-07-26T14:44:23.515Z,50.16
2022-07-26T14:46:51.733Z,50.42
2022-07-26T14:49:20.408Z,50.78
2022-07-26T14:51:48.804Z,52.00
2022-07-26T14:54:18.019Z,52.89
2022-07-26T14:56:45.962Z,52.29
2022-07-26T14:59:15.592Z,51.53
2022-07-26T15:01:43.644Z,52.17
2022-07-26T15:04:13.963Z,50.96
2022-07-26T15:06:42.672Z,51.55
2022-07-26T15:09:10.687Z,49.93
2022-07-26T15:11:42.289Z,51.11
2022-07-26T15:14:10.748Z,54.69
2022-07-26T15:16:40.507Z,54.60
2022-07-26T15:19:08.423Z,53.96
2022-07-26T15:21:36.570Z,52.29
2022-07-26T15:24:04.809Z,51.04
2022-07-26T15:26:32.834Z,52.18
2022-07-26T15:29:00.863Z,52.67
2022-07-26T15:31:37.031Z,52.58
2022-07-26T15:34:08.834Z,53.18
2022-07-26T15:36:37.368Z,51.42
2022-07-26T15:39:16.598Z,51.22
2022-07-26T15:41:45.792Z,50.58
2022-07-26T15:44:14.547Z,52.20
2022-07-26T15:46:46.147Z,51.75
2022-07-26T15:49:18.526Z,51.10
2022-07-26T15:51:48.588Z,52.53
2022-07-26T15:54:17.168Z,53.59
2022-07-26T15:56:46.209Z,53.55
2022-07-26T15:59:14.177Z,54.46
2022-07-26T16:01:42.228Z,55.15
2022-07-26T16:04:10.678Z,56.49
2022-07-26T16:06:51.312Z,58.49
2022-07-26T16:09:22.080Z,58.66
2022-07-26T16:11:52.512Z,58.66
2022-07-26T16:14:28.493Z,58.83
2022-07-26T16:16:59.350Z,58.96
2022-07-26T16:19:27.583Z,59.45
2022-07-26T16:21:57.064Z,58.71
2022-07-26T16:24:39.762Z,59.12
2022-07-26T16:27:08.010Z,58.94
2022-07-26T16:29:36.606Z,59.60
2022-07-26T16:32:04.714Z,59.56
2022-07-26T16:34:34.931Z,59.75
2022-07-26T16:37:04.683Z,59.56
2022-07-26T16:39:32.712Z,59.78
2022-07-26T16:42:06.829Z,60.05
2022-07-26T16:44:36.396Z,58.94
2022-07-26T16:47:05.517Z,60.20
2022-07-26T16:49:33.745Z,60.43
2022-07-26T16:52:01.724Z,59.99
2022-07-26T16:54:31.333Z,60.23
2022-07-26T16:56:59.469Z,61.48
2022-07-26T16:59:28.717Z,61.40
2022-07-26T17:01:56.982Z,62.22
2022-07-26T17:04:29.827Z,62.00
2022-07-26T17:07:23.348Z,61.52
2022-07-26T17:09:48.323Z,62.27
2022-07-26T17:12:35.255Z,61.37
2022-07-26T17:15:03.477Z,58.50
2022-07-26T17:17:32.415Z,56.10
2022-07-26T17:20:00.710Z,55.55
2022-07-26T17:22:28.676Z,54.22
2022-07-26T17:25:00.582Z,53.62
2022-07-26T17:27:28.615Z,54.69
2022-07-26T17:29:56.665Z,55.95
2022-07-26T17:32:25.293Z,55.32
2022-07-26T17:34:54.129Z,56.40
2022-07-26T17:37:22.174Z,57.65
2022-07-26T17:39:53.411Z,58.76
2022-07-26T17:42:23.646Z,59.46
2022-07-26T17:44:52.372Z,59.62
2022-07-26T17:47:29.418Z,59.51
2022-07-26T17:50:14.137Z,59.84
2022-07-26T17:52:48.271Z,60.42
2022-07-26T17:55:16.713Z,61.29
2022-07-26T17:57:46.230Z,61.46
2022-07-26T18:00:15.547Z,60.50
2022-07-26T18:02:43.607Z,61.27
2022-07-26T18:05:12.246Z,62.14
2022-07-26T18:07:40.872Z,61.32
2022-07-26T18:10:11.828Z,62.03
2022-07-26T18:12:40.295Z,62.52
2022-07-26T18:15:11.051Z,62.52
2022-07-26T18:17:39.470Z,63.17
2022-07-26T18:20:09.089Z,63.17
2022-07-26T18:22:37.419Z,63.05
2022-07-26T18:25:06.105Z,63.54
2022-07-26T18:27:34.362Z,63.79
2022-07-26T18:30:02.645Z,63.98
2022-07-26T18:32:32.486Z,65.13
2022-07-26T18:35:00.350Z,64.60
2022-07-26T18:37:28.616Z,64.76
2022-07-26T18:39:58.235Z,64.20
2022-07-26T18:42:26.879Z,64.62
2022-07-26T18:44:55.568Z,65.12
2022-07-26T18:47:23.820Z,66.72
2022-07-26T18:49:53.124Z,65.84
2022-07-26T18:52:31.761Z,64.97
2022-07-26T18:55:02.415Z,65.60
2022-07-26T18:57:30.462Z,66.04
2022-07-26T18:59:58.424Z,66.50
2022-07-26T19:02:26.497Z,67.25
2022-07-26T19:04:56.007Z,66.80
2022-07-26T19:07:24.111Z,66.14
2022-07-26T19:09:58.398Z,65.49
2022-07-26T19:12:28.251Z,66.25
2022-07-26T19:14:56.545Z,67.34
2022-07-26T19:17:24.642Z,66.82
2022-07-26T19:19:52.771Z,67.88
2022-07-26T19:22:23.975Z,68.47
2022-07-26T19:24:52.034Z,67.59
2022-07-26T19:27:20.342Z,68.62
2022-07-26T19:29:49.562Z,69.20
2022-07-26T19:32:17.910Z,69.91
2022-07-26T19:34:46.149Z,70.13
2022-07-26T19:37:24.309Z,69.26
2022-07-26T19:39:55.908Z,69.69
2022-07-26T19:42:23.920Z,71.11
2022-07-26T19:44:52.180Z,69.99
2022-07-26T19:47:21.201Z,70.24
2022-07-26T19:49:49.350Z,71.29
2022-07-26T19:52:17.438Z,71.07
2022-07-26T19:54:45.518Z,69.50
2022-07-26T19:57:15.204Z,70.70
2022-07-26T19:59:43.141Z,70.39
2022-07-26T20:02:11.720Z,70.38
2022-07-26T20:04:45.470Z,70.21
2022-07-26T20:07:19.778Z,71.11
2022-07-26T20:09:50.103Z,70.82
2022-07-26T20:12:21.939Z,69.78
2022-07-26T20:14:50.063Z,70.45
2022-07-26T20:17:18.879Z,70.81
2022-07-26T20:19:46.975Z,71.78
2022-07-26T20:22:15.096Z,71.17
2022-07-26T20:24:43.024Z,70.20
2022-07-26T20:27:11.767Z,69.75
2022-07-26T20:29:41.182Z,69.99
2022-07-26T20:32:09.538Z,70.18
2022-07-26T20:34:37.582Z,69.16
2022-07-26T20:37:05.689Z,69.66
2022-07-26T20:39:34.814Z,69.90
2022-07-26T20:42:03.263Z,70.97
2022-07-26T20:44:32.002Z,71.19
2022-07-26T20:47:01.320Z,70.94
2022-07-26T20:49:29.738Z,70.92
2022-07-26T20:51:58.198Z,71.67
2022-07-26T20:54:26.262Z,71.33
2022-07-26T20:56:54.392Z,69.82
2022-07-26T20:59:25.549Z,69.62
2022-07-26T21:01:54.019Z,68.98
2022-07-26T21:04:23.802Z,69.36
2022-07-26T21:06:51.874Z,69.53
2022-07-26T21:09:23.746Z,69.29
2022-07-26T21:11:52.453Z,69.24
2022-07-26T21:14:20.789Z,69.29
2022-07-26T21:16:49.075Z,68.76
2022-07-26T21:19:17.715Z,68.53
2022-07-26T21:21:47.150Z,69.24
2022-07-26T21:24:15.364Z,68.30
2022-07-26T21:26:43.337Z,69.33
2022-07-26T21:29:12.797Z,70.49
2022-07-26T21:31:41.342Z,70.89
2022-07-26T21:34:10.745Z,69.53
2022-07-26T21:36:40.465Z,69.92
2022-07-26T21:39:10.874Z,71.64
2022-07-26T21:41:39.302Z,71.04
2022-07-26T21:44:07.647Z,70.91
2022-07-26T21:46:36.048Z,71.62
2022-07-26T21:49:05.711Z,71.02
2022-07-26T21:51:35.865Z,70.15
2022-07-26T21:54:04.006Z,71.51
2022-07-26T21:56:34.365Z,70.93
2022-07-26T21:59:02.478Z,71.82
2022-07-26T22:01:30.615Z,72.93
2022-07-26T22:03:58.636Z,72.14
2022-07-26T22:06:26.816Z,72.87
2022-07-26T22:08:56.692Z,71.32
2022-07-26T22:11:24.809Z,71.21
2022-07-26T22:13:54.293Z,70.96
2022-07-26T22:16:22.325Z,72.17
2022-07-26T22:18:50.713Z,72.07
2022-07-26T22:21:18.995Z,72.51
2022-07-26T22:24:12.175Z,72.06
2022-07-26T22:26:42.223Z,73.43
2022-07-26T22:29:12.116Z,73.63
2022-07-26T22:31:40.377Z,73.39
2022-07-26T22:34:08.518Z,73.89
2022-07-26T22:36:36.596Z,74.45
2022-07-26T22:39:05.507Z,75.39
2022-07-26T22:41:57.488Z,77.01
2022-07-26T22:44:27.126Z,76.20
2022-07-26T22:46:55.458Z,76.24
2022-07-26T22:49:23.552Z,76.79
2022-07-26T22:51:52.120Z,77.05
2022-07-26T22:54:20.388Z,77.19
2022-07-26T22:56:49.233Z,75.78
2022-07-26T22:59:17.536Z,76.53
2022-07-26T23:01:46.866Z,75.22
2022-07-26T23:04:14.954Z,75.10
2022-07-26T23:06:44.607Z,74.21
2022-07-26T23:09:14.967Z,74.29
2022-07-26T23:11:43.047Z,74.16
2022-07-26T23:14:12.039Z,73.25
2022-07-26T23:16:40.383Z,73.20
2022-07-26T23:19:10.175Z,72.21
2022-07-26T23:21:38.720Z,72.36
2022-07-26T23:24:07.122Z,73.58
2022-07-26T23:26:35.220Z,73.74
2022-07-26T23:29:03.345Z,74.42
2022-07-26T23:31:31.718Z,74.13
2022-07-26T23:33:59.906Z,73.50
2022-07-26T23:36:30.032Z,74.92
2022-07-26T23:39:00.001Z,74.72
2022-07-26T23:41:29.245Z,74.68
2022-07-26T23:43:58.267Z,73.54
2022-07-26T23:46:26.519Z,73.99
2022-07-26T23:48:55.813Z,74.15
2022-07-26T23:51:24.180Z,74.95
2022-07-26T23:54:01.466Z,74.26
2022-07-26T23:56:29.503Z,75.03
2022-07-26T23:58:58.090Z,74.71
